Time;durP1;ratioP1;P1;durP2;ratioP2;P2;SDS_P1;SDS_P2;PMS_P1;PMS_P2;Temp;Humidity;BMP_temperature;BMP_pressure;BME280_temperature;BME280_humidity;BME280_pressure;Samples;Min_cycle;Max_cycle;Signal;HPM_P1;HPM_P2
2021/06/12 00:00:16;;;;;;;6.50;5.30;;;15.30;99.90;;;;;;2099256;28;20024;-67
2021/06/12 00:01:17;;;;;;;7.28;5.40;;;15.30;99.90;;;;;;2098052;28;20032;-66
2021/06/12 00:02:17;;;;;;;14.68;6.35;;;15.30;99.90;;;;;;2082905;28;20543;-66
2021/06/12 00:03:18;;;;;;;9.43;5.13;;;15.30;99.90;;;;;;2089689;28;20082;-66
2021/06/12 00:04:19;;;;;;;7.22;5.00;;;15.30;99.90;;;;;;2102959;28;20043;-66
2021/06/12 00:05:20;;;;;;;7.65;5.35;;;15.40;99.90;;;;;;2094737;28;20044;-66
2021/06/12 00:06:20;;;;;;;7.57;5.70;;;15.30;99.90;;;;;;2102809;28;20024;-66
2021/06/12 00:07:21;;;;;;;10.40;5.95;;;15.30;99.90;;;;;;2103347;28;20031;-67
2021/06/12 00:08:21;;;;;;;8.25;5.68;;;15.40;99.90;;;;;;2094823;28;20523;-67
2021/06/12 00:09:22;;;;;;;6.30;5.18;;;15.30;99.90;;;;;;2095647;28;20354;-66
2021/06/12 00:10:26;;;;;;;7.60;5.20;;;15.40;99.90;;;;;;2094729;28;20017;-66
2021/06/12 00:11:27;;;;;;;6.32;5.35;;;15.40;99.90;;;;;;2095931;28;20025;-67
2021/06/12 00:12:28;;;;;;;8.52;5.18;;;15.40;99.90;;;;;;2088539;28;20017;-67
2021/06/12 00:13:30;;;;;;;6.15;4.80;;;15.30;99.90;;;;;;2086959;28;20017;-66
2021/06/12 00:14:31;;;;;;;8.23;4.13;;;15.30;99.90;;;;;;2097639;28;20024;-66
2021/06/12 00:15:33;;;;;;;8.07;4.72;;;15.30;99.90;;;;;;2097309;28;20050;-66
2021/06/12 00:16:33;;;;;;;8.48;5.03;;;15.30;99.90;;;;;;2097449;28;20023;-67
2021/06/12 00:17:34;;;;;;;9.07;5.18;;;15.30;99.90;;;;;;2092642;28;20412;-68
2021/06/12 00:18:35;;;;;;;15.10;5.95;;;15.30;99.90;;;;;;2085277;28;20021;-67
2021/06/12 00:19:36;;;;;;;35.25;6.35;;;15.30;99.90;;;;;;2086676;28;20057;-66
2021/06/12 00:20:38;;;;;;;37.38;7.05;;;15.30;99.90;;;;;;2088015;28;20389;-66
2021/06/12 00:21:38;;;;;;;23.98;6.90;;;15.30;99.90;;;;;;2089551;28;20033;-67
2021/06/12 00:22:42;;;;;;;18.83;6.65;;;15.30;99.90;;;;;;2089963;28;20017;-66
2021/06/12 00:23:43;;;;;;;12.32;6.47;;;15.30;99.90;;;;;;2089753;28;20017;-67
2021/06/12 00:24:44;;;;;;;10.98;6.50;;;15.30;99.90;;;;;;2089707;28;20017;-67
2021/06/12 00:25:44;;;;;;;8.63;6.35;;;15.30;99.90;;;;;;2087169;28;20029;-67
2021/06/12 00:26:45;;;;;;;15.82;6.75;;;15.30;99.90;;;;;;2081677;28;20075;-67
2021/06/12 00:27:46;;;;;;;15.55;6.20;;;15.30;99.90;;;;;;2085269;28;20029;-67
2021/06/12 00:28:46;;;;;;;21.88;6.60;;;15.30;99.90;;;;;;2089236;28;20013;-67
2021/06/12 00:29:48;;;;;;;43.45;7.13;;;15.30;99.90;;;;;;2089708;28;20028;-67
2021/06/12 00:30:49;;;;;;;;;;;15.30;99.90;;;;;;2090139;28;20063;-67
2021/06/12 00:31:50;;;;;;;10.85;6.53;;;15.30;99.90;;;;;;2089940;28;19986;-67
2021/06/12 00:32:50;;;;;;;10.50;6.90;;;15.20;99.90;;;;;;2089229;28;20514;-66
2021/06/12 00:33:51;;;;;;;14.43;6.82;;;15.20;99.90;;;;;;2089946;28;20535;-67
2021/06/12 00:34:52;;;;;;;13.35;5.95;;;15.30;99.90;;;;;;2089075;28;20485;-67
2021/06/12 00:35:52;;;;;;;12.52;6.90;;;15.20;99.90;;;;;;2085614;28;20048;-67
2021/06/12 00:36:53;;;;;;;43.35;6.75;;;15.20;99.90;;;;;;2080729;28;20068;-67
2021/06/12 00:37:55;;;;;;;34.47;7.55;;;15.30;99.90;;;;;;2084394;28;20028;-67
2021/06/12 00:38:55;;;;;;;25.80;7.70;;;15.30;99.90;;;;;;2081641;28;20057;-67
2021/06/12 00:39:56;;;;;;;14.40;7.38;;;15.30;99.90;;;;;;2085180;28;20037;-67
2021/06/12 00:40:57;;;;;;;19.08;8.07;;;15.30;99.90;;;;;;2090032;28;20075;-67
2021/06/12 00:41:57;;;;;;;32.03;7.70;;;15.30;99.90;;;;;;2087589;28;20025;-67
2021/06/12 00:42:58;;;;;;;26.25;7.72;;;15.30;99.90;;;;;;2084672;28;20044;-67
2021/06/12 00:43:59;;;;;;;34.60;7.25;;;15.30;99.90;;;;;;2089291;28;20043;-67
2021/06/12 00:44:59;;;;;;;13.07;5.95;;;15.30;99.90;;;;;;2086959;28;20136;-68
2021/06/12 00:46:01;;;;;;;12.13;7.05;;;15.30;99.90;;;;;;2090888;28;20083;-68
2021/06/12 00:47:02;;;;;;;;;;;15.30;99.90;;;;;;2091794;28;20024;-67
2021/06/12 00:48:03;;;;;;;7.38;5.03;;;15.30;99.90;;;;;;2089554;28;19912;-67
2021/06/12 00:49:04;;;;;;;8.60;5.30;;;15.30;99.90;;;;;;2089089;28;20024;-67
2021/06/12 00:50:07;;;;;;;8.20;4.95;;;15.30;99.90;;;;;;2089146;28;20027;-67
2021/06/12 00:51:08;;;;;;;7.78;4.57;;;15.30;99.90;;;;;;2088435;28;20500;-67
2021/06/12 00:52:09;;;;;;;6.32;4.40;;;15.30;99.90;;;;;;2089005;28;20124;-67
2021/06/12 00:53:09;;;;;;;6.43;4.55;;;15.30;99.90;;;;;;2092425;28;20016;-67
2021/06/12 00:54:10;;;;;;;6.55;4.28;;;15.20;99.90;;;;;;2097210;28;20511;-67
2021/06/12 00:55:14;;;;;;;4.50;3.50;;;15.20;99.90;;;;;;2089783;28;20025;-67
2021/06/12 00:56:18;;;;;;;4.90;4.18;;;15.20;99.90;;;;;;2089899;28;20598;-67
2021/06/12 00:57:20;;;;;;;5.22;3.70;;;15.20;99.90;;;;;;2090230;28;20025;-67
2021/06/12 00:58:21;;;;;;;4.70;3.15;;;15.20;99.90;;;;;;2086005;28;20024;-67
2021/06/12 00:59:22;;;;;;;3.80;2.55;;;15.20;99.90;;;;;;2089850;28;20025;-68
2021/06/12 01:00:23;;;;;;;3.65;2.53;;;15.10;99.90;;;;;;2088609;28;20056;-67
2021/06/12 01:01:23;;;;;;;4.43;2.80;;;15.10;99.90;;;;;;2088236;28;20021;-67
2021/06/12 01:02:24;;;;;;;3.92;3.22;;;15.10;99.90;;;;;;2087211;28;20101;-67
2021/06/12 01:03:27;;;;;;;3.38;2.45;;;15.10;99.90;;;;;;2084214;28;20028;-67
2021/06/12 01:04:28;;;;;;;4.50;3.13;;;15.10;99.90;;;;;;2089187;28;20384;-67
2021/06/12 01:05:29;;;;;;;3.63;2.78;;;15.10;99.90;;;;;;2096101;28;20055;-67
2021/06/12 01:06:30;;;;;;;3.33;2.28;;;15.10;99.90;;;;;;2088611;28;20516;-67
2021/06/12 01:07:30;;;;;;;2.90;2.42;;;15.10;99.90;;;;;;2097353;28;20021;-67
2021/06/12 01:08:31;;;;;;;3.22;2.50;;;15.10;99.90;;;;;;2094236;28;20020;-67
2021/06/12 01:09:32;;;;;;;3.40;2.33;;;15.10;99.90;;;;;;2095123;28;20104;-67
2021/06/12 01:10:33;;;;;;;2.35;2.15;;;15.10;99.90;;;;;;2094494;28;20259;-67
2021/06/12 01:11:41;;;;;;;2.72;2.30;;;15.10;99.90;;;;;;2089247;28;20036;-67
2021/06/12 01:12:50;;;;;;;2.88;2.20;;;15.10;99.90;;;;;;2096310;28;20112;-67
2021/06/12 01:14:22;;;;;;;1.85;1.65;;;15.10;99.90;;;;;;2088747;28;20047;-67
2021/06/12 01:15:28;;;;;;;1.90;1.60;;;15.10;99.90;;;;;;2080991;28;20132;-67
2021/06/12 01:16:38;;;;;;;2.63;1.63;;;15.00;99.90;;;;;;2088934;28;20560;-67
2021/06/12 01:18:03;;;;;;;2.83;1.90;;;15.00;99.90;;;;;;2088054;28;20492;-66
2021/06/12 01:19:32;;;;;;;2.17;1.65;;;15.00;99.90;;;;;;2081820;28;20164;-67
2021/06/12 01:21:01;;;;;;;1.88;1.60;;;15.00;99.90;;;;;;2087608;28;20036;-67
2021/06/12 01:22:08;;;;;;;2.05;1.30;;;15.00;99.90;;;;;;2088824;28;20047;-67
2021/06/12 01:23:12;;;;;;;1.50;1.40;;;15.00;99.90;;;;;;2089548;28;20021;-67
2021/06/12 01:24:31;;;;;;;1.98;1.48;;;15.00;99.90;;;;;;2089396;28;20456;-67
2021/06/12 01:26:16;;;;;;;1.90;1.20;;;15.00;99.90;;;;;;2087394;28;20024;-67
2021/06/12 01:27:23;;;;;;;1.80;1.30;;;15.00;99.90;;;;;;2077795;28;20034;-67
2021/06/12 01:28:30;;;;;;;1.70;1.38;;;15.00;99.90;;;;;;2076132;28;20018;-67
2021/06/12 01:29:33;;;;;;;1.38;1.27;;;15.00;99.90;;;;;;2085474;28;20108;-67
2021/06/12 01:30:35;;;;;;;1.52;1.27;;;15.00;99.90;;;;;;2073907;28;20022;-67
2021/06/12 01:31:39;;;;;;;1.25;1.15;;;15.00;99.90;;;;;;2074407;28;20444;-67
2021/06/12 01:32:45;;;;;;;1.77;1.23;;;15.00;99.90;;;;;;2091855;28;20020;-68
2021/06/12 01:33:47;;;;;;;1.20;1.00;;;15.00;99.90;;;;;;2091408;28;20130;-68
2021/06/12 01:34:49;;;;;;;1.63;1.13;;;15.00;99.90;;;;;;2090290;28;20028;-68
2021/06/12 01:35:52;;;;;;;;;;;15.00;99.90;;;;;;2087187;28;20029;-67
2021/06/12 01:36:54;;;;;;;1.58;0.90;;;15.00;99.90;;;;;;2081830;28;19904;-69
2021/06/12 01:37:56;;;;;;;0.70;0.70;;;15.00;99.90;;;;;;2083056;28;20055;-67
2021/06/12 01:38:58;;;;;;;1.30;0.80;;;15.00;99.90;;;;;;2079080;28;20564;-67
2021/06/12 01:40:02;;;;;;;0.90;0.90;;;15.00;99.90;;;;;;2086346;28;20053;-67
2021/06/12 01:41:08;;;;;;;0.93;0.90;;;15.00;99.90;;;;;;2073979;28;20061;-67
2021/06/12 01:42:11;;;;;;;1.50;0.85;;;15.00;99.90;;;;;;2076633;28;20033;-67
2021/06/12 01:43:15;;;;;;;1.25;0.82;;;15.00;99.90;;;;;;2086362;28;20021;-67
2021/06/12 01:44:17;;;;;;;0.80;0.80;;;15.00;99.90;;;;;;2086544;28;20298;-67
2021/06/12 01:45:18;;;;;;;0.55;0.55;;;15.00;99.90;;;;;;2086425;28;20025;-67
2021/06/12 01:46:20;;;;;;;1.20;0.90;;;15.00;99.90;;;;;;2080934;28;20432;-67
2021/06/12 01:47:21;;;;;;;0.70;0.70;;;14.90;99.90;;;;;;2088479;28;20076;-67
2021/06/12 01:48:22;;;;;;;0.60;0.60;;;14.90;99.90;;;;;;2088822;28;20041;-67
2021/06/12 01:49:24;;;;;;;0.73;0.70;;;15.00;99.90;;;;;;2074638;28;20049;-67
2021/06/12 01:50:26;;;;;;;0.90;0.90;;;15.00;99.90;;;;;;2078186;28;20063;-67
2021/06/12 01:51:27;;;;;;;0.80;0.80;;;15.00;99.90;;;;;;2075656;28;20583;-67
2021/06/12 01:52:29;;;;;;;0.80;0.80;;;15.00;99.90;;;;;;2083776;28;20072;-67
2021/06/12 01:53:31;;;;;;;;;;;15.00;99.90;;;;;;2085382;28;20025;-67
2021/06/12 01:54:32;;;;;;;1.10;0.80;;;15.00;99.90;;;;;;2080219;28;20000;-67
2021/06/12 01:55:36;;;;;;;1.02;0.93;;;15.00;99.90;;;;;;2085250;28;20455;-67
2021/06/12 01:56:39;;;;;;;1.00;0.90;;;15.00;99.90;;;;;;2074530;28;20030;-67
2021/06/12 01:57:43;;;;;;;1.35;0.90;;;15.00;99.90;;;;;;2072720;28;20018;-67
2021/06/12 01:58:45;;;;;;;1.80;0.88;;;15.00;99.90;;;;;;2084776;28;20021;-67
2021/06/12 01:59:49;;;;;;;1.10;1.00;;;15.00;99.90;;;;;;2077281;28;20032;-67
2021/06/12 02:00:52;;;;;;;0.80;0.80;;;15.00;99.90;;;;;;2084679;28;20026;-67
2021/06/12 02:01:55;;;;;;;0.90;0.90;;;15.00;99.90;;;;;;2087976;28;20045;-67
2021/06/12 02:02:58;;;;;;;0.93;0.93;;;15.00;99.90;;;;;;2088046;28;20073;-68
2021/06/12 02:04:01;;;;;;;1.10;1.00;;;15.00;99.90;;;;;;2080833;28;20029;-67
2021/06/12 02:05:03;;;;;;;1.33;1.10;;;15.00;99.90;;;;;;2088358;28;20017;-67
2021/06/12 02:06:04;;;;;;;1.08;1.00;;;15.10;99.90;;;;;;2088484;28;20017;-67
2021/06/12 02:07:07;;;;;;;1.10;1.00;;;15.10;99.90;;;;;;2075858;28;20018;-67
2021/06/12 02:08:10;;;;;;;1.17;1.08;;;15.10;99.90;;;;;;2073343;28;20034;-67
2021/06/12 02:09:11;;;;;;;1.10;1.00;;;15.10;99.90;;;;;;2079065;28;20037;-67
2021/06/12 02:10:13;;;;;;;1.30;1.10;;;15.10;99.90;;;;;;2080830;28;20089;-67
2021/06/12 02:11:17;;;;;;;1.35;1.00;;;15.10;99.90;;;;;;2079513;28;20083;-67
2021/06/12 02:12:19;;;;;;;1.60;0.90;;;15.10;99.90;;;;;;2074548;28;20022;-67
2021/06/12 02:13:22;;;;;;;1.33;1.10;;;15.10;99.90;;;;;;2086136;28;20028;-67
2021/06/12 02:14:23;;;;;;;1.33;1.10;;;15.10;99.90;;;;;;2076050;28;20472;-67
2021/06/12 02:15:28;;;;;;;1.40;1.00;;;15.10;99.90;;;;;;2085111;28;20028;-67
2021/06/12 02:16:29;;;;;;;1.08;0.98;;;15.10;99.90;;;;;;2081214;28;20021;-67
2021/06/12 02:17:33;;;;;;;1.55;1.30;;;15.10;99.90;;;;;;2076998;28;20032;-67
2021/06/12 02:18:37;;;;;;;1.58;1.00;;;15.10;99.90;;;;;;2080808;28;20487;-67
2021/06/12 02:19:40;;;;;;;1.10;1.00;;;15.10;99.90;;;;;;2080516;28;20032;-67
2021/06/12 02:20:42;;;;;;;1.55;1.00;;;15.10;99.90;;;;;;2088034;28;20029;-67
2021/06/12 02:21:43;;;;;;;1.73;1.08;;;15.10;99.90;;;;;;2081103;28;20519;-67
2021/06/12 02:22:48;;;;;;;1.27;1.10;;;15.10;99.90;;;;;;2081126;28;20029;-67
2021/06/12 02:23:52;;;;;;;1.30;1.20;;;15.10;99.90;;;;;;2097907;28;20017;-70
2021/06/12 02:24:53;;;;;;;1.58;1.00;;;15.10;99.90;;;;;;2091184;28;20143;-67
2021/06/12 02:25:54;;;;;;;1.55;1.08;;;15.10;99.90;;;;;;2076721;28;20079;-67
2021/06/12 02:26:57;;;;;;;1.10;1.00;;;15.10;99.90;;;;;;2072678;28;20051;-71
2021/06/12 02:28:01;;;;;;;1.40;1.13;;;15.10;99.90;;;;;;2078135;28;20026;-67
2021/06/12 02:29:02;;;;;;;2.13;1.20;;;15.10;99.90;;;;;;2080749;28;20025;-67
2021/06/12 02:30:05;;;;;;;1.55;1.20;;;15.10;99.90;;;;;;2080753;28;20094;-67
2021/06/12 02:31:08;;;;;;;1.42;1.10;;;15.10;99.90;;;;;;2080480;28;20025;-67
2021/06/12 02:32:11;;;;;;;1.23;1.10;;;15.10;99.90;;;;;;2080722;28;20049;-67
2021/06/12 02:33:15;;;;;;;1.35;0.90;;;15.10;99.90;;;;;;2080395;28;20596;-68
2021/06/12 02:34:16;;;;;;;1.58;1.02;;;15.10;99.90;;;;;;2072466;28;20029;-67
2021/06/12 02:35:17;;;;;;;1.45;1.10;;;15.10;99.90;;;;;;2063305;28;20034;-67
2021/06/12 02:36:19;;;;;;;1.92;1.55;;;15.20;99.90;;;;;;2076255;28;20226;-67
2021/06/12 02:37:20;;;;;;;1.33;1.00;;;15.20;99.90;;;;;;2080600;28;20471;-67
2021/06/12 02:38:21;;;;;;;1.58;1.13;;;15.10;99.90;;;;;;2080050;28;20033;-67
2021/06/12 02:39:22;;;;;;;1.63;1.20;;;15.10;99.90;;;;;;2077277;28;20025;-67
2021/06/12 02:40:23;;;;;;;1.20;1.10;;;15.10;99.90;;;;;;2072095;28;20029;-67
2021/06/12 02:41:24;;;;;;;1.88;1.20;;;15.10;99.90;;;;;;2074247;28;20029;-67
2021/06/12 02:42:25;;;;;;;1.40;1.00;;;15.10;99.90;;;;;;2072063;28;20064;-68
2021/06/12 02:43:26;;;;;;;1.00;0.95;;;15.10;99.90;;;;;;2075363;28;20021;-68
2021/06/12 02:44:27;;;;;;;2.03;1.30;;;15.10;99.90;;;;;;2075233;28;20057;-68
2021/06/12 02:45:29;;;;;;;1.42;1.20;;;15.10;99.90;;;;;;2078854;28;20032;-67
2021/06/12 02:46:32;;;;;;;2.35;1.60;;;15.10;99.90;;;;;;2085076;28;20029;-70
2021/06/12 02:47:38;;;;;;;2.30;1.40;;;15.10;99.90;;;;;;2088918;28;20028;-67
2021/06/12 02:48:39;;;;;;;2.00;1.30;;;15.10;99.90;;;;;;2073114;28;20018;-67
2021/06/12 02:49:41;;;;;;;2.75;1.50;;;15.10;99.90;;;;;;2076991;28;20096;-67
2021/06/12 02:50:43;;;;;;;;;;;15.10;99.90;;;;;;2080428;28;20071;-69
2021/06/12 02:51:51;;;;;;;2.30;1.52;;;15.10;99.90;;;;;;2092006;28;19911;-67
2021/06/12 02:52:53;;;;;;;2.58;1.48;;;15.10;99.90;;;;;;2080196;28;20524;-67
2021/06/12 02:53:57;;;;;;;2.25;1.55;;;15.10;99.90;;;;;;2079929;28;20029;-67
2021/06/12 02:55:04;;;;;;;2.08;1.60;;;15.10;99.90;;;;;;2079643;28;20024;-67
2021/06/12 02:56:06;;;;;;;3.10;1.55;;;15.10;99.90;;;;;;2080437;28;20029;-67
2021/06/12 02:57:08;;;;;;;3.35;2.00;;;15.10;99.90;;;;;;2071821;28;20057;-66
2021/06/12 02:58:11;;;;;;;3.08;1.73;;;15.10;99.90;;;;;;2074660;28;20035;-67
2021/06/12 02:59:16;;;;;;;3.15;2.00;;;15.10;99.90;;;;;;2079312;28;20034;-67
2021/06/12 03:00:21;;;;;;;3.55;2.10;;;15.10;99.90;;;;;;2080199;28;20049;-67
2021/06/12 03:01:23;;;;;;;3.47;1.88;;;15.10;99.90;;;;;;2073223;28;20037;-67
2021/06/12 03:02:25;;;;;;;5.43;1.75;;;15.10;99.90;;;;;;2080433;28;20689;-67
2021/06/12 03:03:26;;;;;;;2.47;1.70;;;15.10;99.90;;;;;;2079983;28;20025;-67
2021/06/12 03:04:28;;;;;;;4.53;1.80;;;15.10;99.90;;;;;;2076469;28;20017;-67
2021/06/12 03:05:31;;;;;;;2.60;1.80;;;15.00;99.90;;;;;;2087297;28;20104;-67
2021/06/12 03:06:31;;;;;;;3.95;1.90;;;15.00;99.90;;;;;;2074151;28;20781;-67
2021/06/12 03:07:34;;;;;;;3.78;1.98;;;15.00;99.90;;;;;;2080511;28;20029;-67
2021/06/12 03:08:43;;;;;;;4.03;2.00;;;15.00;99.90;;;;;;2074968;28;20038;-67
2021/06/12 03:09:45;;;;;;;4.20;1.90;;;15.00;99.90;;;;;;2072660;28;20018;-67
2021/06/12 03:10:47;;;;;;;5.35;1.90;;;15.00;99.90;;;;;;2078758;28;20045;-67
2021/06/12 03:11:51;;;;;;;3.67;1.60;;;15.00;99.90;;;;;;2078776;28;20540;-68
2021/06/12 03:12:54;;;;;;;1.60;1.33;;;15.00;99.90;;;;;;2089398;28;20111;-67
2021/06/12 03:13:56;;;;;;;2.42;1.55;;;15.00;99.90;;;;;;2081171;28;20026;-67
2021/06/12 03:14:58;;;;;;;2.13;1.58;;;14.90;99.90;;;;;;2073424;28;20042;-67
2021/06/12 03:16:00;;;;;;;;;;;14.90;99.90;;;;;;2074173;28;20034;-67
2021/06/12 03:17:01;;;;;;;2.38;1.40;;;14.90;99.90;;;;;;2080584;28;19911;-67
2021/06/12 03:18:03;;;;;;;2.35;1.60;;;14.90;99.90;;;;;;2088482;28;20063;-67
2021/06/12 03:19:05;;;;;;;1.98;1.50;;;14.90;99.90;;;;;;2081146;28;20072;-67
2021/06/12 03:20:06;;;;;;;2.38;1.40;;;14.90;99.90;;;;;;2089417;28;20087;-67
2021/06/12 03:21:07;;;;;;;2.88;1.48;;;14.90;99.90;;;;;;2096341;28;20029;-67
2021/06/12 03:22:09;;;;;;;2.22;1.30;;;14.90;99.90;;;;;;2083077;28;20509;-67
2021/06/12 03:23:10;;;;;;;2.05;1.58;;;14.90;99.90;;;;;;2075809;28;20140;-67
2021/06/12 03:24:12;;;;;;;2.63;1.60;;;14.80;99.90;;;;;;2078366;28;20043;-67
2021/06/12 03:25:13;;;;;;;;;;;14.80;99.90;;;;;;2076432;28;20014;-67
2021/06/12 03:26:16;;;;;;;3.15;1.73;;;14.80;99.90;;;;;;2080929;28;19952;-67
2021/06/12 03:27:16;;;;;;;2.65;1.80;;;14.80;99.90;;;;;;2079691;28;20560;-67
2021/06/12 03:28:19;;;;;;;3.60;2.05;;;14.80;99.90;;;;;;2086913;28;20018;-67
2021/06/12 03:29:20;;;;;;;2.60;2.00;;;14.80;99.90;;;;;;2074844;28;20022;-66
2021/06/12 03:30:22;;;;;;;7.20;2.30;;;14.80;99.90;;;;;;2080245;28;20018;-67
2021/06/12 03:31:23;;;;;;;5.05;2.47;;;14.80;99.90;;;;;;2087589;28;20029;-67
2021/06/12 03:32:25;;;;;;;4.15;2.50;;;14.80;99.90;;;;;;2087242;28;20108;-67
2021/06/12 03:33:26;;;;;;;4.03;2.40;;;14.80;99.90;;;;;;2086126;28;20029;-66
2021/06/12 03:34:28;;;;;;;5.05;2.65;;;14.80;99.90;;;;;;2075151;28;20049;-67
2021/06/12 03:35:30;;;;;;;3.75;2.55;;;14.80;99.90;;;;;;2072171;28;20050;-67
2021/06/12 03:36:31;;;;;;;3.78;2.42;;;14.80;99.90;;;;;;2078705;28;20100;-67
2021/06/12 03:37:32;;;;;;;3.70;2.50;;;14.80;99.90;;;;;;2079789;28;20457;-67
2021/06/12 03:38:35;;;;;;;3.72;2.80;;;14.80;99.90;;;;;;2080368;28;20476;-67
2021/06/12 03:39:35;;;;;;;4.05;2.80;;;14.80;99.90;;;;;;2080236;28;20397;-67
2021/06/12 03:40:37;;;;;;;5.53;2.55;;;14.80;99.90;;;;;;2086933;28;20033;-67
2021/06/12 03:41:38;;;;;;;4.82;2.90;;;14.80;99.90;;;;;;2079828;28;20053;-67
2021/06/12 03:42:40;;;;;;;5.15;2.72;;;14.80;99.90;;;;;;2082373;28;20082;-67
2021/06/12 03:43:41;;;;;;;3.50;2.53;;;14.80;99.90;;;;;;2072903;28;20478;-67
2021/06/12 03:44:45;;;;;;;4.95;3.10;;;14.80;99.90;;;;;;2073218;28;20163;-67
2021/06/12 03:45:47;;;;;;;3.58;2.47;;;14.80;99.90;;;;;;2079725;28;20029;-67
2021/06/12 03:46:50;;;;;;;3.95;2.70;;;14.80;99.90;;;;;;2079130;28;20053;-66
2021/06/12 03:47:52;;;;;;;5.25;2.70;;;14.80;99.90;;;;;;2076390;28;20054;-66
2021/06/12 03:48:55;;;;;;;5.93;3.08;;;14.80;99.90;;;;;;2089874;28;20021;-67
2021/06/12 03:49:56;;;;;;;6.38;2.97;;;14.80;99.90;;;;;;2084608;28;20029;-67
2021/06/12 03:50:58;;;;;;;5.28;3.13;;;14.80;99.90;;;;;;2079874;28;20056;-67
2021/06/12 03:52:00;;;;;;;4.65;2.72;;;14.80;99.90;;;;;;2074409;28;20053;-66
2021/06/12 03:53:03;;;;;;;7.18;3.30;;;14.80;99.90;;;;;;2076087;28;20022;-67
2021/06/12 03:54:07;;;;;;;4.95;3.28;;;14.80;99.90;;;;;;2081902;28;20038;-68
2021/06/12 03:55:09;;;;;;;4.38;3.17;;;14.80;99.90;;;;;;2081819;28;20021;-66
2021/06/12 03:56:11;;;;;;;;;;;14.90;99.90;;;;;;2081882;28;20040;-67
2021/06/12 03:57:12;;;;;;;4.30;3.38;;;14.80;99.90;;;;;;2082206;28;19955;-67
2021/06/12 03:58:13;;;;;;;4.88;3.22;;;14.80;99.90;;;;;;2081805;28;20032;-67
2021/06/12 03:59:14;;;;;;;4.82;3.45;;;14.90;99.90;;;;;;2089825;28;20052;-68
2021/06/12 04:00:17;;;;;;;6.18;3.60;;;14.90;99.90;;;;;;2083431;28;20020;-68
2021/06/12 04:01:18;;;;;;;8.68;4.25;;;14.90;99.90;;;;;;2075678;28;20165;-68
2021/06/12 04:02:19;;;;;;;6.78;3.88;;;14.90;99.90;;;;;;2082584;28;20045;-67
2021/06/12 04:03:20;;;;;;;9.00;4.28;;;14.90;99.90;;;;;;2084335;28;20028;-67
2021/06/12 04:04:22;;;;;;;10.68;4.07;;;14.90;99.90;;;;;;2081759;28;20355;-68
2021/06/12 04:05:22;;;;;;;6.50;3.95;;;14.90;99.90;;;;;;2075340;28;20107;-68
2021/06/12 04:06:23;;;;;;;6.93;4.00;;;14.90;99.90;;;;;;2073084;28;20124;-68
2021/06/12 04:07:27;;;;;;;7.15;4.00;;;14.90;99.90;;;;;;2081104;28;20026;-68
2021/06/12 04:08:28;;;;;;;7.00;3.75;;;14.90;99.90;;;;;;2081407;28;20493;-68
2021/06/12 04:09:29;;;;;;;11.30;4.07;;;14.90;99.90;;;;;;2080476;28;20053;-68
2021/06/12 04:10:29;;;;;;;7.28;3.88;;;14.90;99.90;;;;;;2080550;28;20029;-69
2021/06/12 04:11:30;;;;;;;5.93;4.00;;;14.90;99.90;;;;;;2074360;28;20026;-68
2021/06/12 04:12:31;;;;;;;5.60;3.65;;;14.90;99.90;;;;;;2081104;28;20400;-68
2021/06/12 04:13:32;;;;;;;5.78;3.63;;;14.90;99.90;;;;;;2080859;28;20043;-68
2021/06/12 04:14:32;;;;;;;4.88;3.65;;;14.90;99.90;;;;;;2077533;28;20060;-68
2021/06/12 04:15:33;;;;;;;5.80;4.07;;;14.90;99.90;;;;;;2086235;28;20025;-68
2021/06/12 04:16:34;;;;;;;5.50;3.90;;;14.90;99.90;;;;;;2089097;28;20021;-68
2021/06/12 04:17:35;;;;;;;9.57;4.38;;;14.90;99.90;;;;;;2081837;28;20021;-68
2021/06/12 04:18:36;;;;;;;5.90;4.05;;;14.90;99.90;;;;;;2081154;28;20104;-68
2021/06/12 04:19:39;;;;;;;6.57;3.90;;;14.90;99.90;;;;;;2081615;28;20053;-68
2021/06/12 04:20:40;;;;;;;4.35;3.40;;;14.90;99.90;;;;;;2075347;28;20018;-69
2021/06/12 04:21:41;;;;;;;5.07;3.85;;;14.90;99.90;;;;;;2074117;28;20026;-68
2021/06/12 04:22:42;;;;;;;8.23;4.13;;;14.90;99.90;;;;;;2081893;28;20028;-71
2021/06/12 04:23:43;;;;;;;6.45;4.53;;;14.90;99.90;;;;;;2088652;28;20408;-69
2021/06/12 04:24:44;;;;;;;9.45;4.30;;;14.90;99.90;;;;;;2076314;28;20398;-68
2021/06/12 04:25:44;;;;;;;7.95;4.78;;;14.90;99.90;;;;;;2077268;28;20022;-68
2021/06/12 04:26:45;;;;;;;10.60;4.72;;;14.90;99.90;;;;;;2075659;28;20042;-68
2021/06/12 04:27:46;;;;;;;8.35;4.78;;;14.90;99.90;;;;;;2077694;28;20538;-68
2021/06/12 04:28:46;;;;;;;10.07;5.05;;;15.00;99.90;;;;;;2089473;28;20132;-68
2021/06/12 04:29:47;;;;;;;8.00;4.63;;;15.00;99.90;;;;;;2089291;28;20048;-68
2021/06/12 04:30:50;;;;;;;9.90;4.88;;;14.90;99.90;;;;;;2081440;28;20366;-68
2021/06/12 04:31:50;;;;;;;8.93;5.07;;;15.00;99.90;;;;;;2076650;28;20033;-68
2021/06/12 04:32:51;;;;;;;11.32;4.40;;;15.00;99.90;;;;;;2081079;28;20593;-68
2021/06/12 04:33:52;;;;;;;6.13;4.13;;;15.00;99.90;;;;;;2074851;28;20036;-68
2021/06/12 04:34:53;;;;;;;8.65;3.70;;;15.00;99.90;;;;;;2080407;28;20537;-68
2021/06/12 04:35:53;;;;;;;6.10;4.13;;;14.90;99.90;;;;;;2087458;28;20028;-68
2021/06/12 04:36:54;;;;;;;8.32;4.00;;;14.90;99.90;;;;;;2073008;28;20029;-68
2021/06/12 04:37:59;;;;;;;11.63;3.90;;;14.90;99.90;;;;;;2076746;28;20032;-68
2021/06/12 04:39:00;;;;;;;5.53;3.60;;;14.90;99.90;;;;;;2081730;28;20014;-68
2021/06/12 04:40:00;;;;;;;8.10;4.05;;;14.90;99.90;;;;;;2081380;28;20032;-69
2021/06/12 04:41:01;;;;;;;5.30;3.65;;;14.90;99.90;;;;;;2078231;28;20128;-69
2021/06/12 04:42:02;;;;;;;8.00;3.63;;;14.90;99.90;;;;;;2080600;28;20541;-68
2021/06/12 04:43:05;;;;;;;5.60;3.90;;;14.90;99.90;;;;;;2083819;28;20016;-68
2021/06/12 04:44:06;;;;;;;6.07;4.20;;;14.90;99.90;;;;;;2073512;28;20383;-68
2021/06/12 04:45:08;;;;;;;5.93;4.28;;;14.90;99.90;;;;;;2077818;28;20080;-68
2021/06/12 04:46:09;;;;;;;;;;;15.00;99.90;;;;;;2079345;28;20022;-68
2021/06/12 04:47:09;;;;;;;6.18;3.78;;;14.90;99.90;;;;;;2073515;28;20432;-68
2021/06/12 04:48:10;;;;;;;5.75;3.80;;;14.90;99.90;;;;;;2078125;28;20038;-68
2021/06/12 04:49:11;;;;;;;9.30;4.30;;;14.90;99.90;;;;;;2082243;28;20021;-68
2021/06/12 04:50:12;;;;;;;7.90;3.97;;;14.90;99.90;;;;;;2081945;28;20017;-71
2021/06/12 04:51:13;;;;;;;7.28;5.03;;;14.90;99.90;;;;;;2082273;28;20503;-68
2021/06/12 04:52:14;;;;;;;6.75;3.50;;;14.90;99.90;;;;;;2083982;28;20056;-68
2021/06/12 04:53:14;;;;;;;7.28;4.20;;;14.90;99.90;;;;;;2088985;28;20052;-68
2021/06/12 04:54:15;;;;;;;7.57;3.80;;;14.90;99.90;;;;;;2076516;28;20074;-68
2021/06/12 04:55:16;;;;;;;5.75;3.90;;;14.90;99.90;;;;;;2087448;28;20057;-68
2021/06/12 04:56:17;;;;;;;7.10;3.88;;;14.90;99.90;;;;;;2089018;28;20016;-67
2021/06/12 04:57:17;;;;;;;4.93;3.55;;;14.90;99.90;;;;;;2081888;28;20025;-69
2021/06/12 04:58:18;;;;;;;6.00;3.60;;;14.90;99.90;;;;;;2081539;28;20018;-71
2021/06/12 04:59:19;;;;;;;4.82;3.53;;;14.90;99.90;;;;;;2080645;28;20025;-67
2021/06/12 05:00:20;;;;;;;5.03;3.65;;;14.90;99.90;;;;;;2080661;28;20513;-68
2021/06/12 05:01:21;;;;;;;6.07;4.15;;;14.90;99.90;;;;;;2081826;28;20056;-68
2021/06/12 05:02:21;;;;;;;8.60;4.53;;;14.90;99.90;;;;;;2080947;28;20111;-68
2021/06/12 05:03:22;;;;;;;5.65;4.20;;;14.90;99.90;;;;;;2084571;28;20567;-67
2021/06/12 05:04:23;;;;;;;6.90;4.28;;;15.00;99.90;;;;;;2081938;28;20444;-69
2021/06/12 05:05:24;;;;;;;4.22;3.75;;;15.00;99.90;;;;;;2080529;28;20049;-68
2021/06/12 05:06:24;;;;;;;11.05;5.13;;;15.00;99.90;;;;;;2081471;28;20017;-67
2021/06/12 05:07:25;;;;;;;7.85;4.70;;;15.00;99.90;;;;;;2082462;28;20068;-67
2021/06/12 05:08:26;;;;;;;6.20;4.47;;;15.00;99.90;;;;;;2080319;28;20525;-67
2021/06/12 05:09:26;;;;;;;9.38;4.32;;;15.00;99.90;;;;;;2080626;28;20025;-67
2021/06/12 05:10:27;;;;;;;5.30;4.22;;;15.00;99.90;;;;;;2078322;28;20373;-67
2021/06/12 05:11:28;;;;;;;9.88;4.50;;;15.10;99.90;;;;;;2080733;28;20079;-67
2021/06/12 05:12:28;;;;;;;8.90;4.15;;;15.10;99.90;;;;;;2080193;28;20016;-67
2021/06/12 05:13:32;;;;;;;6.30;4.75;;;15.10;99.90;;;;;;2079965;28;20527;-67
2021/06/12 05:14:32;;;;;;;6.22;4.05;;;15.10;99.90;;;;;;2081121;28;20067;-67
2021/06/12 05:15:34;;;;;;;9.18;4.55;;;15.20;99.90;;;;;;2072137;28;20702;-67
2021/06/12 05:16:36;;;;;;;8.63;4.45;;;15.20;99.90;;;;;;2072669;28;20026;-67
2021/06/12 05:17:43;;;;;;;9.13;4.07;;;15.20;99.90;;;;;;2072266;28;20686;-67
2021/06/12 05:18:44;;;;;;;7.50;4.05;;;15.20;99.90;;;;;;2075370;28;20055;-67
2021/06/12 05:19:45;;;;;;;5.50;4.18;;;15.20;99.90;;;;;;2073075;28;20171;-67
2021/06/12 05:20:46;;;;;;;5.43;3.88;;;15.30;99.90;;;;;;2072765;28;20022;-67
2021/06/12 05:21:48;;;;;;;8.00;4.38;;;15.30;99.90;;;;;;2081574;28;20691;-67
2021/06/12 05:22:49;;;;;;;9.07;4.10;;;15.30;99.90;;;;;;2088683;28;20067;-66
2021/06/12 05:23:50;;;;;;;10.67;4.10;;;15.40;99.90;;;;;;2079576;28;20024;-66
2021/06/12 05:24:52;;;;;;;6.30;3.70;;;15.40;99.90;;;;;;2081468;28;20259;-66